createdAt,value
2022-10-26T00:01:21.388Z,84.02
2022-10-26T00:03:48.657Z,83.93
2022-10-26T00:06:22.425Z,82.52
2022-10-26T00:08:52.539Z,82.48
2022-10-26T00:11:20.190Z,82.27
2022-10-26T00:13:48.061Z,81.94
2022-10-26T00:16:33.258Z,81.18
2022-10-26T00:19:00.515Z,81.99
2022-10-26T00:21:28.495Z,81.58
2022-10-26T00:23:55.610Z,81.86
2022-10-26T00:26:24.844Z,82.81
2022-10-26T00:28:57.230Z,83.65
2022-10-26T00:31:25.158Z,83.74
2022-10-26T00:33:57.111Z,84.38
2022-10-26T00:36:25.966Z,84.48
2022-10-26T00:38:56.049Z,85.54
2022-10-26T00:41:28.751Z,86.30
2022-10-26T00:43:56.601Z,86.92
2022-10-26T00:46:37.881Z,88.46
2022-10-26T00:51:54.312Z,88.37
2022-10-26T00:54:21.781Z,88.10
2022-10-26T00:56:52.199Z,88.68
2022-10-26T00:59:21.711Z,90.28
2022-10-26T01:01:49.931Z,89.53
2022-10-26T01:04:18.406Z,89.40
2022-10-26T01:06:46.718Z,89.10
2022-10-26T01:09:13.891Z,88.83
2022-10-26T01:11:43.156Z,88.35
2022-10-26T01:14:12.767Z,86.99
2022-10-26T01:17:08.089Z,87.65
2022-10-26T01:20:38.442Z,86.84
2022-10-26T01:23:24.567Z,87.59
2022-10-26T01:26:07.035Z,86.94
2022-10-26T01:28:55.455Z,87.09
2022-10-26T01:31:33.102Z,88.14
2022-10-26T01:34:09.160Z,87.68
2022-10-26T01:36:55.458Z,87.95
2022-10-26T01:39:36.417Z,87.19
2022-10-26T01:42:05.641Z,88.32
2022-10-26T01:44:42.476Z,87.91
2022-10-26T01:47:15.644Z,88.87
2022-10-26T01:49:49.927Z,88.14
2022-10-26T01:52:19.678Z,87.87
2022-10-26T01:54:47.321Z,88.42
2022-10-26T01:57:20.228Z,87.92
2022-10-26T02:00:10.065Z,88.14
2022-10-26T02:03:17.249Z,88.49
2022-10-26T02:06:04.615Z,88.56
2022-10-26T02:09:02.796Z,88.46
2022-10-26T02:11:41.870Z,88.20
2022-10-26T02:14:17.777Z,90.02
2022-10-26T02:16:58.596Z,88.65
2022-10-26T02:19:50.661Z,89.33
2022-10-26T02:22:23.674Z,89.13
2022-10-26T02:24:54.786Z,88.68
2022-10-26T02:27:31.496Z,88.70
2022-10-26T02:30:02.244Z,88.17
2022-10-26T02:32:35.117Z,88.76
2022-10-26T02:35:05.361Z,88.80
2022-10-26T02:37:35.768Z,87.26
2022-10-26T02:40:09.183Z,88.26
2022-10-26T02:42:37.670Z,88.31
2022-10-26T02:45:11.222Z,87.55
2022-10-26T02:47:41.304Z,88.58
2022-10-26T02:50:09.004Z,88.88
2022-10-26T02:53:01.553Z,87.81
2022-10-26T02:55:36.924Z,88.66
2022-10-26T02:58:12.355Z,89.94
2022-10-26T03:00:39.895Z,89.00
2022-10-26T03:03:07.100Z,89.33
2022-10-26T03:05:36.318Z,89.65
2022-10-26T03:08:12.592Z,89.08
2022-10-26T03:10:46.318Z,87.56
2022-10-26T03:13:14.375Z,87.77
2022-10-26T03:15:41.594Z,87.69
2022-10-26T03:18:08.778Z,86.50
2022-10-26T03:20:36.031Z,87.50
2022-10-26T03:23:03.361Z,87.03
2022-10-26T03:25:30.639Z,87.54
2022-10-26T03:28:02.467Z,87.75
2022-10-26T03:30:33.222Z,87.90
2022-10-26T03:33:05.061Z,88.26
2022-10-26T03:35:32.626Z,87.77
2022-10-26T03:37:59.737Z,88.11
2022-10-26T03:40:29.355Z,87.53
2022-10-26T03:42:56.500Z,88.28
2022-10-26T03:45:23.656Z,87.00
2022-10-26T03:47:51.002Z,86.91
2022-10-26T03:50:21.951Z,87.67
2022-10-26T03:52:50.725Z,88.05
2022-10-26T03:55:20.659Z,88.25
2022-10-26T03:57:50.137Z,87.82
2022-10-26T04:00:18.130Z,87.82
2022-10-26T04:02:57.547Z,87.17
2022-10-26T04:05:27.299Z,87.88
2022-10-26T04:08:04.587Z,87.45
2022-10-26T04:10:32.440Z,87.06
2022-10-26T04:13:23.962Z,86.45
2022-10-26T04:15:51.538Z,86.91
2022-10-26T04:18:18.789Z,87.13
2022-10-26T04:20:56.851Z,86.34
2022-10-26T04:25:50.965Z,87.16
2022-10-26T04:28:19.509Z,87.01
2022-10-26T04:30:48.107Z,87.29
2022-10-26T04:33:15.208Z,86.12
2022-10-26T04:35:43.113Z,85.94
2022-10-26T04:38:10.780Z,86.31
2022-10-26T04:40:37.895Z,86.67
2022-10-26T04:43:07.266Z,86.38
2022-10-26T04:45:35.028Z,85.84
2022-10-26T04:48:06.032Z,86.36
2022-10-26T04:50:36.066Z,87.29
2022-10-26T04:53:04.689Z,86.31
2022-10-26T04:55:31.772Z,87.72
2022-10-26T04:58:01.812Z,87.60
2022-10-26T05:00:33.135Z,87.33
2022-10-26T05:03:02.823Z,87.70
2022-10-26T05:05:32.421Z,87.26
2022-10-26T05:08:04.520Z,87.64
2022-10-26T05:10:31.856Z,87.05
2022-10-26T05:13:02.302Z,86.79
2022-10-26T05:15:32.224Z,86.00
2022-10-26T05:18:03.436Z,85.92
2022-10-26T05:20:33.534Z,85.58
2022-10-26T05:23:04.136Z,86.93
2022-10-26T05:25:37.297Z,86.76
2022-10-26T05:28:13.387Z,87.03
2022-10-26T05:30:45.389Z,87.39
2022-10-26T05:33:13.993Z,86.61
2022-10-26T05:35:41.731Z,86.15
2022-10-26T05:38:17.692Z,84.79
2022-10-26T05:40:53.444Z,85.77
2022-10-26T05:43:25.189Z,87.77
2022-10-26T05:45:52.468Z,88.83
2022-10-26T05:48:23.032Z,88.31
2022-10-26T05:50:50.288Z,87.82
2022-10-26T05:53:17.590Z,89.02
2022-10-26T05:55:47.266Z,88.44
2022-10-26T05:58:15.712Z,88.90
2022-10-26T06:00:59.299Z,87.52
2022-10-26T06:03:52.400Z,87.51
2022-10-26T06:06:19.852Z,87.51
2022-10-26T06:08:47.396Z,86.53
2022-10-26T06:11:17.349Z,86.72
2022-10-26T06:13:44.896Z,86.68
2022-10-26T06:16:26.831Z,85.60
2022-10-26T06:19:42.349Z,85.64
2022-10-26T06:22:48.256Z,85.42
2022-10-26T06:25:52.810Z,85.59
2022-10-26T06:28:47.300Z,85.28
2022-10-26T06:31:17.711Z,85.27
2022-10-26T06:33:45.280Z,85.18
2022-10-26T06:36:27.708Z,84.68
2022-10-26T06:39:18.927Z,86.00
2022-10-26T06:41:46.478Z,87.25
2022-10-26T06:44:23.736Z,86.11
2022-10-26T06:47:37.805Z,88.04
2022-10-26T06:50:38.976Z,88.45
2022-10-26T06:56:13.432Z,87.90
2022-10-26T06:58:44.814Z,86.80
2022-10-26T07:01:12.867Z,87.33
2022-10-26T07:03:40.093Z,87.72
2022-10-26T07:06:07.498Z,86.61
2022-10-26T07:08:37.303Z,85.95
2022-10-26T07:11:04.870Z,85.79
2022-10-26T07:13:31.952Z,86.40
2022-10-26T07:15:59.004Z,86.21
2022-10-26T07:18:28.519Z,86.79
2022-10-26T07:21:07.234Z,86.39
2022-10-26T07:23:34.284Z,85.62
2022-10-26T07:26:01.405Z,85.87
2022-10-26T07:28:28.609Z,87.43
2022-10-26T07:30:58.256Z,85.89
2022-10-26T07:33:25.361Z,86.01
2022-10-26T07:35:54.233Z,86.14
2022-10-26T07:38:25.889Z,85.81
2022-10-26T07:40:54.405Z,87.60
2022-10-26T07:43:21.622Z,87.94
2022-10-26T07:45:51.897Z,88.23
2022-10-26T07:48:21.548Z,87.25
2022-10-26T07:50:51.023Z,86.85
2022-10-26T07:53:18.012Z,86.12
2022-10-26T07:55:57.197Z,84.97
2022-10-26T07:58:26.334Z,85.38
2022-10-26T08:00:54.565Z,84.53
2022-10-26T08:03:22.124Z,84.49
2022-10-26T08:05:55.895Z,82.89
2022-10-26T08:08:23.436Z,83.38
2022-10-26T08:10:55.068Z,82.98
2022-10-26T08:13:24.480Z,82.24
2022-10-26T08:16:00.139Z,82.15
2022-10-26T08:18:28.227Z,84.14
2022-10-26T08:21:01.814Z,82.83
2022-10-26T08:23:37.546Z,82.99
2022-10-26T08:26:05.146Z,82.94
2022-10-26T08:28:32.391Z,83.58
2022-10-26T08:30:59.527Z,81.97
2022-10-26T08:33:26.716Z,81.97
2022-10-26T08:36:06.513Z,82.84
2022-10-26T08:38:36.885Z,81.25
2022-10-26T08:41:10.644Z,80.65
2022-10-26T08:43:50.453Z,79.90
2022-10-26T08:46:35.137Z,78.96
2022-10-26T08:49:44.319Z,79.12
2022-10-26T08:52:18.029Z,79.40
2022-10-26T08:54:57.472Z,81.85
2022-10-26T08:57:39.752Z,80.60
2022-10-26T09:00:28.203Z,79.72
2022-10-26T09:02:55.410Z,78.90
2022-10-26T09:05:43.968Z,78.37
2022-10-26T09:08:56.789Z,79.19
2022-10-26T09:11:47.707Z,79.95
2022-10-26T09:15:04.733Z,80.46
2022-10-26T09:17:57.659Z,80.79
2022-10-26T09:20:48.696Z,80.21
2022-10-26T09:23:31.637Z,82.22
2022-10-26T09:26:05.868Z,82.94
2022-10-26T09:28:37.836Z,81.42
2022-10-26T09:31:05.856Z,82.41
2022-10-26T09:33:39.822Z,83.68
2022-10-26T09:36:22.273Z,81.79
2022-10-26T09:39:42.483Z,80.91
2022-10-26T09:42:24.672Z,80.72
2022-10-26T09:45:17.115Z,80.60
2022-10-26T09:47:52.942Z,79.62
2022-10-26T09:50:37.227Z,80.34
2022-10-26T09:53:04.730Z,80.31
2022-10-26T09:55:34.533Z,79.45
2022-10-26T09:58:06.448Z,79.06
2022-10-26T10:03:32.153Z,82.87
2022-10-26T10:06:27.085Z,83.57
2022-10-26T10:09:21.119Z,83.50
2022-10-26T10:11:56.656Z,83.61
2022-10-26T10:14:57.651Z,85.19
2022-10-26T10:17:25.932Z,84.39
2022-10-26T10:19:53.552Z,83.86
2022-10-26T10:22:25.787Z,83.33
2022-10-26T10:25:01.246Z,82.55
2022-10-26T10:27:33.590Z,82.64
2022-10-26T10:30:22.534Z,82.19
2022-10-26T10:33:11.392Z,81.31
2022-10-26T10:35:49.625Z,81.28
2022-10-26T10:38:21.236Z,80.07
2022-10-26T10:40:58.297Z,78.93
2022-10-26T10:43:26.696Z,80.15
2022-10-26T10:45:59.644Z,79.61
2022-10-26T10:48:29.456Z,78.30
2022-10-26T10:51:03.359Z,78.29
2022-10-26T10:53:45.719Z,77.83
2022-10-26T10:56:15.490Z,76.56
2022-10-26T10:59:11.055Z,77.56
2022-10-26T11:02:20.641Z,78.12
2022-10-26T11:05:33.414Z,77.84
2022-10-26T11:08:14.247Z,78.40
2022-10-26T11:10:53.528Z,77.28
2022-10-26T11:14:16.989Z,77.97
2022-10-26T11:16:59.270Z,77.80
2022-10-26T11:19:46.361Z,77.81
2022-10-26T11:22:24.222Z,76.98
2022-10-26T11:25:06.065Z,77.81
2022-10-26T11:28:11.118Z,76.79
2022-10-26T11:30:52.371Z,76.77
2022-10-26T11:33:40.150Z,76.97
2022-10-26T11:36:18.474Z,75.43
2022-10-26T11:39:02.753Z,74.61
2022-10-26T11:41:56.005Z,75.17
2022-10-26T11:44:38.684Z,75.47
2022-10-26T11:47:23.923Z,75.61
2022-10-26T11:50:21.878Z,73.61
2022-10-26T11:53:03.720Z,74.55
2022-10-26T11:55:31.815Z,75.95
2022-10-26T11:57:59.204Z,75.77
2022-10-26T12:00:27.096Z,75.82
2022-10-26T12:03:30.474Z,75.84
2022-10-26T12:05:57.582Z,75.21
2022-10-26T12:08:43.934Z,75.33
2022-10-26T12:11:58.590Z,74.78
2022-10-26T12:14:39.556Z,73.58
2022-10-26T12:17:28.358Z,73.83
2022-10-26T12:20:53.724Z,73.36
2022-10-26T12:23:33.919Z,73.72
2022-10-26T12:26:39.871Z,73.50
2022-10-26T12:29:06.797Z,73.73
2022-10-26T12:31:36.865Z,73.87
2022-10-26T12:34:22.245Z,71.54
2022-10-26T12:36:55.368Z,71.46
2022-10-26T12:39:32.902Z,71.18
2022-10-26T12:42:26.007Z,71.52
2022-10-26T12:44:53.521Z,72.97
2022-10-26T12:47:32.818Z,72.26
2022-10-26T12:50:09.426Z,72.82
2022-10-26T12:52:48.863Z,73.04
2022-10-26T12:55:36.603Z,72.14
2022-10-26T12:58:45.143Z,72.32
2022-10-26T13:01:24.261Z,71.88
2022-10-26T13:04:09.211Z,70.45
2022-10-26T13:06:48.027Z,70.06
2022-10-26T13:09:33.158Z,70.29
2022-10-26T13:12:03.861Z,70.18
2022-10-26T13:14:41.310Z,69.38
2022-10-26T13:17:28.784Z,67.76
2022-10-26T13:20:01.003Z,67.68
2022-10-26T13:22:31.429Z,68.12
2022-10-26T13:25:03.963Z,69.26
2022-10-26T13:27:36.468Z,70.33
2022-10-26T13:30:09.639Z,70.55
2022-10-26T13:33:02.845Z,70.86
2022-10-26T13:35:32.593Z,70.39
2022-10-26T13:38:07.479Z,70.37
2022-10-26T13:40:38.493Z,69.49
2022-10-26T13:43:19.729Z,68.44
2022-10-26T13:46:01.329Z,68.36
2022-10-26T13:48:41.865Z,67.84
2022-10-26T13:51:30.315Z,68.15
2022-10-26T13:54:03.351Z,69.39
2022-10-26T13:56:39.496Z,68.97
2022-10-26T13:59:13.869Z,69.14
2022-10-26T14:01:41.283Z,69.28
2022-10-26T14:04:28.821Z,67.97
2022-10-26T14:06:56.099Z,69.02
2022-10-26T14:09:25.798Z,67.35
2022-10-26T14:12:00.128Z,66.57
2022-10-26T14:14:34.992Z,65.76
2022-10-26T14:17:02.791Z,65.05
2022-10-26T14:19:36.471Z,65.00
2022-10-26T14:22:04.386Z,66.94
2022-10-26T14:24:48.256Z,67.11
2022-10-26T14:27:24.144Z,67.98
2022-10-26T14:30:17.129Z,69.05
2022-10-26T14:32:40.807Z,69.50
2022-10-26T14:35:13.704Z,69.62
2022-10-26T14:38:26.519Z,70.56
2022-10-26T14:40:56.291Z,71.53
2022-10-26T14:43:26.063Z,72.19
2022-10-26T14:45:57.430Z,73.27
2022-10-26T14:48:35.026Z,72.98
2022-10-26T14:51:06.049Z,72.85
2022-10-26T14:53:40.645Z,72.70
2022-10-26T14:56:41.009Z,72.67
2022-10-26T14:59:32.279Z,72.30
2022-10-26T15:02:11.378Z,74.97
2022-10-26T15:04:42.194Z,75.54
2022-10-26T15:07:15.400Z,74.94
2022-10-26T15:09:46.907Z,74.70
2022-10-26T15:12:36.972Z,73.21
2022-10-26T15:15:23.741Z,72.88
2022-10-26T15:17:57.809Z,73.40
2022-10-26T15:20:27.668Z,73.45
2022-10-26T15:23:02.873Z,73.59
2022-10-26T15:25:34.879Z,73.82
2022-10-26T15:28:31.162Z,73.71
2022-10-26T15:31:11.718Z,74.38
2022-10-26T15:34:04.857Z,75.06
2022-10-26T15:36:35.839Z,75.92
2022-10-26T15:39:02.966Z,76.12
2022-10-26T15:41:40.035Z,76.28
2022-10-26T15:44:20.461Z,76.22
2022-10-26T15:46:47.836Z,77.13
2022-10-26T15:49:20.802Z,77.67
2022-10-26T15:51:49.491Z,77.17
2022-10-26T15:54:16.718Z,76.85
2022-10-26T15:56:44.316Z,77.14
2022-10-26T15:59:18.594Z,77.36
2022-10-26T16:01:48.337Z,78.08
2022-10-26T16:04:15.993Z,78.83
2022-10-26T16:06:43.423Z,79.67
2022-10-26T16:09:17.918Z,78.25
2022-10-26T16:11:45.496Z,78.64
2022-10-26T16:14:13.150Z,80.38
2022-10-26T16:16:42.592Z,80.01
2022-10-26T16:19:30.455Z,79.88
2022-10-26T16:21:59.036Z,79.89
2022-10-26T16:24:30.663Z,80.93
2022-10-26T16:26:58.354Z,79.64
2022-10-26T16:29:25.471Z,79.33
2022-10-26T16:31:52.624Z,80.27
2022-10-26T16:34:19.777Z,78.85
2022-10-26T16:36:46.957Z,79.18
2022-10-26T16:39:14.295Z,79.12
2022-10-26T16:41:41.415Z,79.48
2022-10-26T16:44:08.630Z,79.48
2022-10-26T16:46:35.800Z,80.78
2022-10-26T16:49:02.886Z,80.38
2022-10-26T16:51:32.677Z,79.86
2022-10-26T16:54:00.114Z,79.54
2022-10-26T16:56:30.126Z,79.11
2022-10-26T16:58:57.780Z,79.75
2022-10-26T17:01:27.945Z,80.43
2022-10-26T17:03:55.252Z,79.67
2022-10-26T17:06:22.506Z,81.45
2022-10-26T17:08:49.928Z,79.71
2022-10-26T17:11:23.137Z,80.75
2022-10-26T17:13:54.954Z,80.70
2022-10-26T17:16:24.981Z,80.61
2022-10-26T17:18:54.065Z,79.73
2022-10-26T17:21:38.170Z,79.67
2022-10-26T17:24:06.874Z,79.42
2022-10-26T17:26:36.486Z,80.70
2022-10-26T17:29:04.151Z,80.25
2022-10-26T17:31:31.299Z,79.59
2022-10-26T17:33:58.801Z,80.64
2022-10-26T17:36:27.649Z,83.24
2022-10-26T17:38:58.484Z,81.82
2022-10-26T17:41:25.717Z,81.05
2022-10-26T17:43:53.938Z,80.83
2022-10-26T17:46:27.294Z,80.83
2022-10-26T17:48:59.538Z,80.02
2022-10-26T17:51:28.362Z,81.74
2022-10-26T17:53:59.134Z,80.64
2022-10-26T17:56:29.983Z,80.09
2022-10-26T17:59:03.889Z,80.32
2022-10-26T18:01:32.061Z,81.12
2022-10-26T18:03:59.638Z,80.42
2022-10-26T18:06:27.673Z,80.15
2022-10-26T18:08:59.394Z,81.07
2022-10-26T18:11:27.608Z,81.54
2022-10-26T18:14:00.954Z,82.88
2022-10-26T18:16:29.011Z,81.98
2022-10-26T18:19:01.706Z,80.54
2022-10-26T18:21:32.695Z,80.68
2022-10-26T18:24:00.359Z,81.85
2022-10-26T18:26:31.744Z,80.76
2022-10-26T18:29:01.005Z,81.37
2022-10-26T18:31:33.171Z,79.94
2022-10-26T18:34:02.399Z,79.53
2022-10-26T18:36:30.970Z,79.85
2022-10-26T18:39:00.667Z,79.22
2022-10-26T18:41:28.874Z,79.56
2022-10-26T18:43:59.974Z,79.08
2022-10-26T18:46:33.856Z,79.07
2022-10-26T18:49:01.227Z,79.05
2022-10-26T18:51:34.679Z,79.43
2022-10-26T18:54:02.297Z,79.65
2022-10-26T18:56:29.584Z,79.53
2022-10-26T18:59:05.893Z,79.15
2022-10-26T19:01:35.919Z,78.67
2022-10-26T19:04:07.482Z,78.62
2022-10-26T19:06:40.680Z,79.41
2022-10-26T19:09:10.195Z,78.88
2022-10-26T19:11:38.335Z,79.02
2022-10-26T19:14:07.035Z,79.00
2022-10-26T19:16:45.758Z,78.90
2022-10-26T19:19:15.316Z,78.94
2022-10-26T19:21:42.415Z,79.73
2022-10-26T19:24:21.519Z,79.50
2022-10-26T19:26:50.663Z,79.47
2022-10-26T19:29:21.772Z,79.50
2022-10-26T19:31:53.176Z,81.23
2022-10-26T19:34:22.714Z,81.60
2022-10-26T19:36:49.907Z,82.36
2022-10-26T19:39:18.238Z,81.43
2022-10-26T19:41:48.560Z,81.28
2022-10-26T19:44:16.572Z,82.20
2022-10-26T19:46:45.095Z,82.44
2022-10-26T19:49:13.140Z,81.39
2022-10-26T19:51:40.366Z,81.79
2022-10-26T19:54:07.731Z,81.45
2022-10-26T19:56:37.104Z,80.94
2022-10-26T19:59:05.630Z,80.45
2022-10-26T20:01:33.226Z,81.04
2022-10-26T20:04:02.595Z,81.45
2022-10-26T20:06:31.065Z,81.31
2022-10-26T20:08:58.874Z,81.34
2022-10-26T20:11:26.152Z,81.21
2022-10-26T20:13:55.584Z,81.23
2022-10-26T20:16:22.895Z,81.05
2022-10-26T20:18:49.993Z,81.35
2022-10-26T20:21:18.001Z,81.69
2022-10-26T20:23:46.869Z,81.87
2022-10-26T20:26:20.151Z,81.25
2022-10-26T20:28:51.980Z,83.03
2022-10-26T20:31:20.144Z,82.64
2022-10-26T20:34:00.754Z,82.51
2022-10-26T20:36:30.833Z,83.49
2022-10-26T20:39:01.283Z,85.00
2022-10-26T20:41:28.724Z,84.20
2022-10-26T20:43:58.051Z,84.02
2022-10-26T20:46:27.812Z,84.20
2022-10-26T20:48:55.321Z,83.96
2022-10-26T20:51:38.549Z,83.51
2022-10-26T20:54:26.077Z,82.64
2022-10-26T20:56:59.694Z,82.01
2022-10-26T20:59:50.970Z,81.70
2022-10-26T21:02:21.280Z,81.52
2022-10-26T21:04:48.502Z,81.49
2022-10-26T21:07:15.665Z,81.84
2022-10-26T21:09:42.897Z,81.32
2022-10-26T21:12:12.671Z,81.12
2022-10-26T21:14:41.036Z,81.39
2022-10-26T21:17:11.337Z,81.46
2022-10-26T21:19:38.466Z,80.80
2022-10-26T21:22:05.555Z,80.67
2022-10-26T21:24:32.912Z,80.84
2022-10-26T21:27:00.011Z,81.54
2022-10-26T21:29:27.179Z,82.03
2022-10-26T21:31:54.254Z,82.50
2022-10-26T21:34:21.361Z,83.20
2022-10-26T21:36:48.574Z,83.29
2022-10-26T21:39:15.617Z,84.77
2022-10-26T21:41:43.986Z,86.59
2022-10-26T21:44:24.655Z,86.53
2022-10-26T21:46:58.312Z,85.32
2022-10-26T21:49:25.405Z,84.00
2022-10-26T21:51:52.439Z,84.14
2022-10-26T21:54:19.572Z,84.14
2022-10-26T21:56:49.153Z,85.14
2022-10-26T21:59:18.339Z,84.74
2022-10-26T22:01:45.509Z,84.41
2022-10-26T22:04:12.809Z,85.01
2022-10-26T22:06:42.528Z,85.32
2022-10-26T22:09:12.119Z,85.08
2022-10-26T22:11:39.277Z,83.88
2022-10-26T22:14:06.572Z,83.77
2022-10-26T22:16:33.852Z,83.33
2022-10-26T22:19:07.546Z,83.03
2022-10-26T22:21:38.369Z,83.00
2022-10-26T22:24:06.467Z,82.65
2022-10-26T22:26:39.133Z,83.09
2022-10-26T22:29:10.179Z,82.32
2022-10-26T22:31:42.259Z,81.70
2022-10-26T22:34:16.170Z,83.20
2022-10-26T22:36:46.269Z,83.50
2022-10-26T22:39:13.392Z,83.03
2022-10-26T22:41:40.519Z,83.11
2022-10-26T22:44:07.676Z,83.76
2022-10-26T22:46:34.950Z,83.56
2022-10-26T22:49:03.149Z,83.69
2022-10-26T22:51:33.495Z,83.56
2022-10-26T22:54:05.294Z,84.31
2022-10-26T22:56:35.450Z,83.87
2022-10-26T22:59:02.829Z,84.62
2022-10-26T23:01:39.276Z,84.77
2022-10-26T23:04:07.997Z,84.76
2022-10-26T23:06:35.169Z,84.55
2022-10-26T23:09:02.424Z,83.87
2022-10-26T23:11:29.969Z,83.83
2022-10-26T23:14:00.830Z,83.49
2022-10-26T23:16:31.350Z,83.92
2022-10-26T23:18:59.858Z,82.79
2022-10-26T23:21:28.441Z,84.46
2022-10-26T23:23:56.632Z,83.62
2022-10-26T23:26:23.969Z,84.08
2022-10-26T23:28:53.737Z,85.09
2022-10-26T23:31:27.007Z,85.30
2022-10-26T23:33:56.441Z,85.17
2022-10-26T23:36:25.882Z,83.78
2022-10-26T23:38:55.263Z,83.68
2022-10-26T23:41:22.491Z,83.28
2022-10-26T23:43:51.909Z,82.80
2022-10-26T23:46:19.061Z,83.26
2022-10-26T23:48:46.316Z,83.10
2022-10-26T23:51:13.401Z,84.75
2022-10-26T23:53:40.634Z,84.14
2022-10-26T23:56:08.113Z,85.38
2022-10-26T23:58:37.665Z,84.58
